Aka, Japan

2:44 AM JST on 二月 21, 2017 (GMT +0900)
Naha | | Change Station

高度 26 ft 26.18 °N, 127.65 °E | Updated 14 minutes ago

曇
66 °F
体感気温 66 °F
15
風 変数 風 から 北北東

今日
高い -- | 低 -- °F
--% 降水確率
昨日
高い -- | 低 -- °F
Precip. -- インチ
気圧 30.09 インチ
視程 5.6 マイル
わずか 1300 ft
だいたい曇 2000 ft
露点温度 59 °F
湿度 78%
降水 0.00 インチ
積雪深 利用不可。
7:01 AM 6:27 PM
二十六夜, 32% visible
METAR ROAH 201730Z 03013KT 9000 FEW013 BKN020 19/15 Q1019 RMK 1CU013 6CU020 A3011
気圧 30.09 インチ
視程 5.6 マイル
わずか 1300 ft
だいたい曇 2000 ft
露点温度 59 °F
湿度 78%
降水 0.00 インチ
積雪深 利用不可。
7:01 AM 6:27 PM
二十六夜, 32% visible
METAR ROAH 201730Z 03013KT 9000 FEW013 BKN020 19/15 Q1019 RMK 1CU013 6CU020 A3011

Get Your Daily Forecast Email!

Thanks for signing up!

Be on the lookout for a verification email in your inbox.

You'll start receiving the daily forecast at 8 AM.

×

10-Day Weather Forecast

No radar image for this location.
×

Almanac

天文

Feb. 21, 2017 入り
実時間
常用薄明
航海薄明
天文薄明
可視光の長さ
可照時間
Tomorrow will be .
, % of the Moon is Illuminated

今日の極値

Country Highs Country Lows

Community

WunderPhotos

Upload Photos

1,962,540 写真がアップロードされました!

WunderBlog® & News

Nearby

空気品質

  空気品質 大気質指数 汚染物質
Not available.

積雪深

Station Depth 高度

地震活動

Distance Mag. Time & Date
Minimum magnitude displayed is 2.5.

沿岸の水温

地名 気温

Stations

最寄りの気象観測所

観測所位置 温度 体感気温(寒さ) 露点温度 湿度 Precip. 高度 更新日時 タイプする